createdAt,value
2022-08-26T00:03:28.225Z,13.60
2022-08-26T00:08:08.887Z,13.60
2022-08-26T00:12:37.879Z,13.50
2022-08-26T00:16:26.105Z,13.40
2022-08-26T00:20:43.902Z,13.30
2022-08-26T00:25:04.240Z,13.20
2022-08-26T00:29:13.054Z,13.10
2022-08-26T00:34:00.499Z,13.00
2022-08-26T00:37:57.694Z,13.00
2022-08-26T00:42:31.631Z,12.90
2022-08-26T00:47:04.448Z,12.80
2022-08-26T00:51:15.164Z,12.80
2022-08-26T00:59:21.872Z,12.70
2022-08-26T01:03:48.397Z,12.70
2022-08-26T01:07:36.609Z,12.70
2022-08-26T01:11:41.739Z,12.50
2022-08-26T01:15:42.643Z,12.50
2022-08-26T01:28:55.250Z,12.50
2022-08-26T01:32:49.395Z,12.40
2022-08-26T01:37:14.689Z,12.40
2022-08-26T01:41:27.201Z,12.30
2022-08-26T01:45:18.239Z,12.30
2022-08-26T01:49:28.476Z,12.30
2022-08-26T02:02:05.606Z,12.20
2022-08-26T02:06:02.135Z,12.20
2022-08-26T02:10:14.599Z,12.20
2022-08-26T02:14:16.064Z,12.20
2022-08-26T02:18:16.099Z,12.10
2022-08-26T02:22:51.300Z,12.10
2022-08-26T02:31:15.573Z,12.00
2022-08-26T02:35:36.503Z,11.90
2022-08-26T02:39:52.221Z,11.90
2022-08-26T02:44:23.806Z,11.80
2022-08-26T02:48:47.099Z,11.70
2022-08-26T02:57:20.623Z,11.50
2022-08-26T03:22:41.029Z,11.30
2022-08-26T03:28:32.680Z,11.20
2022-08-26T03:32:46.033Z,11.20
2022-08-26T03:36:58.032Z,11.20
2022-08-26T03:45:22.282Z,11.00
2022-08-26T03:54:33.781Z,11.00
2022-08-26T03:59:18.055Z,11.00
2022-08-26T04:03:16.972Z,11.00
2022-08-26T04:07:15.684Z,10.90
2022-08-26T04:15:50.047Z,10.90
2022-08-26T04:22:12.616Z,10.80
2022-08-26T04:38:06.318Z,10.80
2022-08-26T04:42:21.091Z,10.70
2022-08-26T04:52:07.181Z,10.70
2022-08-26T05:05:58.059Z,10.50
2022-08-26T05:26:23.381Z,10.50
2022-08-26T12:13:38.848Z,30.30
2022-08-26T12:17:31.166Z,29.80
2022-08-26T12:21:55.318Z,29.80
2022-08-26T12:25:49.995Z,29.90
2022-08-26T12:29:48.717Z,29.80
2022-08-26T12:33:56.369Z,29.50
2022-08-26T12:42:43.031Z,29.10
2022-08-26T12:56:08.840Z,28.10
2022-08-26T12:59:51.426Z,27.70
2022-08-26T13:04:02.696Z,27.40
2022-08-26T13:07:47.701Z,27.20
2022-08-26T13:11:57.931Z,27.00
2022-08-26T13:16:37.887Z,26.80
2022-08-26T13:25:34.938Z,26.70
2022-08-26T13:29:23.586Z,26.60
2022-08-26T13:33:33.058Z,26.80
2022-08-26T13:37:40.053Z,27.20
2022-08-26T13:42:10.248Z,27.60
2022-08-26T13:50:40.969Z,27.80
2022-08-26T13:54:47.547Z,28.00
2022-08-26T13:59:28.317Z,28.20
2022-08-26T14:03:54.792Z,28.10
2022-08-26T14:07:37.907Z,27.90
2022-08-26T14:11:25.815Z,27.70
2022-08-26T14:15:15.056Z,27.70
2022-08-26T14:19:35.552Z,27.60
2022-08-26T14:23:46.995Z,27.50
2022-08-26T14:28:03.322Z,27.60
2022-08-26T14:45:21.528Z,26.70
2022-08-26T14:49:16.054Z,26.40
2022-08-26T14:57:44.691Z,26.00
2022-08-26T15:01:30.833Z,25.90
2022-08-26T15:27:28.406Z,25.80
2022-08-26T15:39:58.000Z,26.00
2022-08-26T15:48:29.466Z,26.30
2022-08-26T15:56:56.299Z,26.40
2022-08-26T17:12:05.571Z,25.20
2022-08-26T18:20:34.121Z,23.00
2022-08-26T18:24:19.390Z,22.90
2022-08-26T18:28:18.859Z,22.70
2022-08-26T18:32:20.950Z,22.50
2022-08-26T18:36:49.258Z,22.30
2022-08-26T18:41:08.820Z,22.10
2022-08-26T18:49:10.388Z,21.70
2022-08-26T18:52:53.972Z,21.70
2022-08-26T18:56:45.051Z,21.50
2022-08-26T19:00:36.268Z,21.30
2022-08-26T19:04:30.104Z,21.20
2022-08-26T19:08:15.524Z,21.00
2022-08-26T19:16:15.970Z,20.70
2022-08-26T19:20:04.567Z,20.70
2022-08-26T19:24:21.102Z,20.50
2022-08-26T19:37:52.502Z,20.30
2022-08-26T19:41:41.936Z,20.20
2022-08-26T19:45:33.889Z,20.20
2022-08-26T19:50:30.199Z,20.20
2022-08-26T19:59:50.586Z,20.10
2022-08-26T20:03:15.985Z,20.10
2022-08-26T20:07:02.934Z,20.00
2022-08-26T20:10:46.736Z,20.00
2022-08-26T20:14:32.971Z,20.00
2022-08-26T20:19:32.496Z,20.00
2022-08-26T20:23:18.913Z,19.90
2022-08-26T20:27:09.316Z,19.90
2022-08-26T20:30:54.155Z,19.90
2022-08-26T20:34:37.481Z,19.80
2022-08-26T20:38:22.323Z,19.80
2022-08-26T20:42:38.332Z,19.80
2022-08-26T20:46:24.657Z,19.70
2022-08-26T20:50:14.587Z,19.70
2022-08-26T20:54:01.291Z,19.70
2022-08-26T20:58:10.964Z,19.70
2022-08-26T21:07:33.106Z,19.60
2022-08-26T21:11:19.540Z,19.60
2022-08-26T21:15:02.737Z,19.60
2022-08-26T21:18:47.432Z,19.50
2022-08-26T21:22:31.186Z,19.50
2022-08-26T21:26:20.611Z,19.40
2022-08-26T21:30:10.901Z,19.40
2022-08-26T21:33:54.233Z,19.40
2022-08-26T21:37:38.136Z,19.30
2022-08-26T21:41:25.507Z,19.30
2022-08-26T21:45:09.068Z,19.20
2022-08-26T21:49:02.414Z,19.20
2022-08-26T21:52:45.867Z,19.20
2022-08-26T21:56:41.948Z,19.20
2022-08-26T22:00:25.256Z,19.20
2022-08-26T22:04:09.909Z,19.20
2022-08-26T22:07:52.641Z,19.10
2022-08-26T22:12:25.482Z,19.10
2022-08-26T22:15:42.735Z,19.00
2022-08-26T22:19:34.086Z,18.90
2022-08-26T22:23:33.651Z,18.80
2022-08-26T22:27:40.417Z,18.80
2022-08-26T22:31:37.514Z,18.70
2022-08-26T22:35:29.091Z,18.70
2022-08-26T22:39:23.033Z,18.60
2022-08-26T22:43:06.374Z,18.60
2022-08-26T22:46:52.690Z,18.50
2022-08-26T22:50:39.753Z,18.50
2022-08-26T22:54:22.537Z,18.40
2022-08-26T22:58:18.428Z,18.40
2022-08-26T23:02:54.638Z,18.30
2022-08-26T23:06:51.310Z,18.20
2022-08-26T23:11:00.977Z,18.20
2022-08-26T23:14:52.281Z,18.00
2022-08-26T23:18:49.762Z,18.00
2022-08-26T23:23:02.252Z,17.90
2022-08-26T23:27:08.391Z,17.80
2022-08-26T23:57:42.843Z,17.00
